Time;durP1;ratioP1;P1;durP2;ratioP2;P2;SDS_P1;SDS_P2;PMS_P1;PMS_P2;Temp;Humidity;BMP_temperature;BMP_pressure;BME280_temperature;BME280_humidity;BME280_pressure;Samples;Min_cycle;Max_cycle;Signal;HPM_P1;HPM_P2
2022/01/22 00:01:52;;;;;;;;;;;6.50;99.90;;;;;;4844550;29;20094;-77
2022/01/22 00:04:18;;;;;;;10.75;2.40;;;6.50;99.90;;;;;;4843801;29;19924;-77
2022/01/22 00:06:43;;;;;;;;;;;6.50;99.90;;;;;;4850157;29;20053;-77
2022/01/22 00:09:09;;;;;;;12.60;1.70;;;6.50;99.90;;;;;;4862536;29;20050;-77
2022/01/22 00:11:39;;;;;;;11.20;2.08;;;6.50;99.90;;;;;;4862606;29;20053;-77
2022/01/22 00:14:23;;;;;;;10.10;2.53;;;6.50;99.90;;;;;;4862135;29;20045;-77
2022/01/22 00:16:50;;;;;;;12.80;2.25;;;6.60;99.90;;;;;;4861266;29;20442;-77
2022/01/22 00:19:16;;;;;;;12.38;2.15;;;6.60;99.90;;;;;;4861688;29;20049;-76
2022/01/22 00:21:42;;;;;;;;;;;6.60;99.90;;;;;;4933675;23;20399;-76
2022/01/22 00:24:10;;;;;;;13.43;3.00;;;6.60;99.90;;;;;;4880397;29;20394;-78
2022/01/22 00:26:36;;;;;;;14.68;2.17;;;6.60;99.90;;;;;;4880601;29;20140;-78
2022/01/22 00:29:02;;;;;;;;;;;6.60;99.90;;;;;;4896551;29;20135;-78
2022/01/22 00:31:27;;;;;;;9.63;2.05;;;6.60;99.90;;;;;;4898766;29;19919;-78
2022/01/22 00:33:52;;;;;;;;;;;6.60;99.90;;;;;;4899878;29;20132;-78
2022/01/22 00:36:18;;;;;;;6.05;1.90;;;6.60;99.90;;;;;;4899412;29;19926;-77
2022/01/22 00:38:44;;;;;;;;;;;6.60;99.90;;;;;;4898471;29;20056;-78
2022/01/22 00:41:10;;;;;;;8.25;1.83;;;6.60;99.90;;;;;;4898737;29;20038;-78
2022/01/22 00:43:36;;;;;;;13.68;2.35;;;6.60;99.90;;;;;;4899301;29;20052;-78
2022/01/22 00:46:01;;;;;;;;;;;6.60;99.90;;;;;;4899744;29;20378;-77
2022/01/22 00:48:27;;;;;;;14.57;2.30;;;6.60;99.90;;;;;;4898897;29;19987;-77
2022/01/22 00:50:56;;;;;;;;;;;6.60;99.90;;;;;;4899897;29;20563;-78
2022/01/22 00:53:22;;;;;;;11.18;1.80;;;6.60;99.90;;;;;;5053612;23;19923;-77
2022/01/22 00:55:48;;;;;;;9.15;1.58;;;6.70;99.90;;;;;;4880000;29;20052;-78
2022/01/22 00:58:14;;;;;;;;;;;6.60;99.90;;;;;;4880870;29;20397;-78
2022/01/22 01:00:39;;;;;;;5.10;1.77;;;6.70;99.90;;;;;;4880697;29;19974;-77
2022/01/22 01:03:05;;;;;;;;;;;6.70;99.90;;;;;;4880716;29;20132;-77
2022/01/22 01:05:31;;;;;;;8.50;1.70;;;6.70;99.90;;;;;;4880507;29;19929;-78
2022/01/22 01:07:56;;;;;;;;;;;6.70;99.90;;;;;;4881258;29;20048;-77
2022/01/22 01:10:22;;;;;;;6.32;1.48;;;6.70;99.90;;;;;;4892302;29;19926;-77
2022/01/22 01:12:51;;;;;;;;;;;6.70;99.90;;;;;;4898846;29;20568;-77
2022/01/22 01:18:05;;;;;;;9.55;1.40;;;6.60;99.90;;;;;;4899203;29;20056;-77
2022/01/22 01:34:18;;;;;;;4.60;1.23;;;6.60;99.90;;;;;;4898808;29;20052;-77
2022/01/22 01:36:48;;;;;;;4.47;0.90;;;6.60;99.90;;;;;;4902175;29;20515;-77
2022/01/22 01:39:26;;;;;;;5.47;1.50;;;6.60;99.90;;;;;;4902483;29;20093;-76
2022/01/22 01:44:24;;;;;;;2.83;0.95;;;6.60;99.90;;;;;;4901503;29;20422;-77
2022/01/22 01:46:53;;;;;;;4.30;1.00;;;6.60;99.90;;;;;;4902668;29;20052;-77
2022/01/22 01:49:19;;;;;;;3.20;0.95;;;6.60;99.90;;;;;;4902325;29;20048;-77
2022/01/22 01:51:45;;;;;;;4.32;0.95;;;6.60;99.90;;;;;;4902235;29;20041;-77
2022/01/22 01:59:36;;;;;;;5.03;1.30;;;6.50;99.90;;;;;;4879593;29;20079;-77
2022/01/22 02:02:01;;;;;;;;;;;6.50;99.90;;;;;;4883643;29;20079;-76
2022/01/22 02:04:27;;;;;;;8.45;1.17;;;6.50;99.90;;;;;;4883001;29;19931;-76
2022/01/22 02:06:55;;;;;;;;;;;6.50;99.90;;;;;;4883206;29;20056;-76
2022/01/22 02:09:20;;;;;;;3.65;1.33;;;6.50;99.90;;;;;;4882973;29;19927;-77
2022/01/22 02:11:46;;;;;;;;;;;6.50;99.90;;;;;;4883266;29;20099;-77
2022/01/22 02:25:10;;;;;;;7.38;1.30;;;6.40;99.90;;;;;;4882793;29;20143;-77
2022/01/22 02:27:36;;;;;;;6.30;1.30;;;6.50;99.90;;;;;;4882587;29;20048;-77
2022/01/22 02:30:02;;;;;;;;;;;6.50;99.90;;;;;;4883202;29;20052;-77
2022/01/22 02:35:09;;;;;;;4.13;0.88;;;6.50;99.90;;;;;;4863643;29;20865;-77
2022/01/22 02:37:39;;;;;;;2.72;1.00;;;6.50;99.90;;;;;;4864787;29;20067;-77
2022/01/22 02:40:11;;;;;;;3.72;1.05;;;6.50;99.90;;;;;;4864294;29;20383;-77
2022/01/22 02:42:36;;;;;;;2.78;1.20;;;6.50;99.90;;;;;;4864377;29;20083;-76
2022/01/22 02:45:08;;;;;;;;;;;6.40;99.90;;;;;;4864676;29;20092;-77
2022/01/22 02:47:34;;;;;;;3.35;0.80;;;6.40;99.90;;;;;;4863579;29;19930;-77
2022/01/22 02:49:59;;;;;;;;;;;6.40;99.90;;;;;;4864540;29;20140;-76
2022/01/22 02:52:25;;;;;;;6.90;1.15;;;6.40;99.90;;;;;;4870495;29;19933;-76
2022/01/22 02:54:51;;;;;;;3.60;1.05;;;6.40;99.90;;;;;;4882240;29;20446;-76
2022/01/22 02:57:17;;;;;;;;;;;6.40;99.90;;;;;;4882088;29;20060;-76
2022/01/22 02:59:43;;;;;;;5.97;1.15;;;6.30;99.90;;;;;;4882457;29;20003;-77
2022/01/22 03:02:12;;;;;;;;;;;6.30;99.90;;;;;;4882102;29;20040;-76
2022/01/22 03:04:38;;;;;;;5.22;1.60;;;6.30;99.90;;;;;;4888764;24;19934;-76
2022/01/22 03:07:03;;;;;;;;;;;6.40;99.90;;;;;;4882688;29;20131;-77
2022/01/22 03:09:32;;;;;;;4.93;1.02;;;6.30;99.90;;;;;;4881363;29;19923;-76
2022/01/22 03:15:28;;;;;;;3.33;1.00;;;6.00;99.90;;;;;;4893373;29;20103;-77
2022/01/22 03:22:54;;;;;;;4.30;1.20;;;6.20;99.90;;;;;;4862655;29;20321;-76
2022/01/22 03:27:57;;;;;;;8.43;1.20;;;6.20;99.90;;;;;;4863488;29;20057;-77
2022/01/22 03:30:22;;;;;;;;;;;6.20;99.90;;;;;;4873956;29;20056;-77
2022/01/22 03:32:52;;;;;;;4.60;1.05;;;6.20;99.90;;;;;;4881624;29;19929;-77
2022/01/22 03:37:46;;;;;;;6.25;1.48;;;6.10;99.90;;;;;;4898381;29;20124;-77
2022/01/22 03:40:13;;;;;;;6.72;1.40;;;6.10;99.90;;;;;;4898693;29;20143;-77
2022/01/22 03:42:41;;;;;;;5.65;1.42;;;7.10;99.90;;;;;;4881761;29;20056;-77
2022/01/22 03:45:09;;;;;;;4.10;0.88;;;6.20;99.90;;;;;;4881025;29;20048;-77
2022/01/22 03:47:34;;;;;;;4.60;1.10;;;6.20;99.90;;;;;;4881800;29;20512;-77
2022/01/22 03:50:00;;;;;;;;;;;6.10;99.90;;;;;;4880900;29;20095;-77
2022/01/22 03:52:26;;;;;;;2.65;1.00;;;6.20;99.90;;;;;;4863001;29;20019;-77
2022/01/22 03:54:51;;;;;;;;;;;6.10;99.90;;;;;;4863403;29;20056;-78
2022/01/22 03:57:17;;;;;;;3.78;0.98;;;6.20;99.90;;;;;;4861593;29;19990;-77
2022/01/22 03:59:47;;;;;;;;;;;6.20;99.90;;;;;;4863226;29;20060;-77
2022/01/22 04:05:02;;;;;;;4.18;0.98;;;6.10;99.90;;;;;;4862197;29;20140;-77
2022/01/22 04:10:08;;;;;;;4.13;1.20;;;6.40;99.90;;;;;;4881570;29;20053;-78
2022/01/22 04:15:03;;;;;;;8.55;1.20;;;6.20;99.90;;;;;;4881158;29;20049;-77
2022/01/22 04:25:31;;;;;;;3.42;0.95;;;6.30;99.90;;;;;;4880269;29;20449;-76
2022/01/22 04:27:57;;;;;;;6.47;1.30;;;6.30;99.90;;;;;;4872355;29;20045;-76
2022/01/22 04:30:24;;;;;;;;;;;6.30;99.90;;;;;;4862251;29;20059;-77
2022/01/22 04:32:50;;;;;;;5.50;1.00;;;6.30;99.90;;;;;;4862270;29;19928;-76
2022/01/22 04:35:19;;;;;;;5.03;0.98;;;6.30;99.90;;;;;;4862002;29;20060;-77
2022/01/22 04:37:48;;;;;;;3.00;1.00;;;6.30;99.90;;;;;;4862535;29;20054;-76
2022/01/22 04:40:14;;;;;;;8.43;1.15;;;6.30;99.90;;;;;;4861681;29;20402;-76
2022/01/22 04:42:41;;;;;;;;;;;6.20;99.90;;;;;;4862429;29;20053;-76
2022/01/22 04:45:28;;;;;;;10.15;1.20;;;6.20;99.90;;;;;;4862172;29;20316;-76
2022/01/22 04:56:32;;;;;;;7.50;1.10;;;6.20;99.90;;;;;;4865286;29;20048;-77
2022/01/22 04:59:03;;;;;;;;;;;6.20;99.90;;;;;;4880724;29;20074;-77
2022/01/22 05:01:40;;;;;;;2.10;0.80;;;6.20;99.90;;;;;;4896975;29;20002;-77
2022/01/22 05:04:08;;;;;;;2.70;0.90;;;6.20;99.90;;;;;;4880229;29;20405;-76
2022/01/22 05:06:34;;;;;;;5.38;1.05;;;6.20;99.90;;;;;;4880812;29;20053;-77
2022/01/22 05:08:59;;;;;;;;;;;6.20;99.90;;;;;;4877697;29;20105;-77
2022/01/22 05:11:25;;;;;;;4.65;1.00;;;6.20;99.90;;;;;;4865856;29;19928;-77
2022/01/22 05:13:51;;;;;;;;;;;6.20;99.90;;;;;;4866227;29;20049;-77
2022/01/22 05:16:17;;;;;;;4.07;1.00;;;6.10;99.90;;;;;;4864886;29;19923;-77
2022/01/22 05:18:51;;;;;;;;;;;6.10;99.90;;;;;;4865923;29;20064;-76
2022/01/22 05:21:18;;;;;;;4.13;0.95;;;6.10;99.90;;;;;;4864552;29;20329;-77
2022/01/22 05:23:45;;;;;;;6.20;1.23;;;6.10;99.90;;;;;;4865611;29;20088;-76
2022/01/22 05:26:31;;;;;;;3.70;0.73;;;6.10;99.90;;;;;;4865072;29;20045;-77
2022/01/22 05:39:21;;;;;;;5.25;1.27;;;6.10;99.90;;;;;;4883308;29;20083;-77
2022/01/22 05:41:47;;;;;;;4.00;1.00;;;6.10;99.90;;;;;;4884038;29;20064;-77
2022/01/22 05:44:13;;;;;;;6.43;1.27;;;7.00;99.90;;;;;;4866536;29;20053;-77
2022/01/22 05:46:39;;;;;;;;;;;6.10;99.90;;;;;;4865203;29;20379;-77
2022/01/22 05:49:05;;;;;;;4.78;1.00;;;6.10;99.90;;;;;;4865269;29;19924;-77
2022/01/22 05:51:31;;;;;;;3.35;0.82;;;6.10;99.90;;;;;;4864754;29;20454;-77
2022/01/22 05:54:30;;;;;;;3.03;0.82;;;6.10;99.90;;;;;;4865409;29;20136;-77
2022/01/22 05:59:36;;;;;;;4.53;0.95;;;6.00;99.90;;;;;;4865847;29;20057;-77
2022/01/22 06:02:22;;;;;;;4.05;1.00;;;6.10;99.90;;;;;;4865017;29;20041;-77
2022/01/22 06:04:48;;;;;;;5.35;1.02;;;6.10;99.90;;;;;;4863726;29;20112;-77
2022/01/22 06:07:13;;;;;;;;;;;6.00;99.90;;;;;;4864338;29;20605;-77
2022/01/22 06:09:41;;;;;;;2.05;0.95;;;6.00;99.90;;;;;;4865062;29;19928;-76
2022/01/22 06:14:33;;;;;;;3.88;1.10;;;6.10;99.90;;;;;;4879330;29;20064;-77
2022/01/22 06:16:59;;;;;;;;;;;6.00;99.90;;;;;;4882999;29;20048;-77
2022/01/22 06:19:25;;;;;;;3.80;1.17;;;6.10;99.90;;;;;;4882167;29;20269;-77
2022/01/22 06:21:51;;;;;;;6.35;1.33;;;6.10;99.90;;;;;;4883116;29;20425;-77
2022/01/22 06:24:18;;;;;;;3.83;1.15;;;6.10;99.90;;;;;;4883225;29;20188;-77
2022/01/22 06:26:44;;;;;;;7.13;1.30;;;6.10;99.90;;;;;;4882662;29;20048;-77
2022/01/22 06:29:10;;;;;;;;;;;6.10;99.90;;;;;;4873411;29;20421;-77
2022/01/22 06:31:36;;;;;;;10.50;1.50;;;6.10;99.90;;;;;;4864209;29;19979;-77
2022/01/22 06:34:02;;;;;;;7.25;1.67;;;6.10;99.90;;;;;;4863927;29;20053;-77
2022/01/22 06:36:28;;;;;;;;;;;6.10;99.90;;;;;;4864520;29;20132;-77
2022/01/22 06:39:09;;;;;;;4.53;1.48;;;6.10;99.90;;;;;;4868042;29;20002;-77
2022/01/22 06:41:44;;;;;;;6.65;1.15;;;6.00;99.90;;;;;;4881879;29;20057;-77
2022/01/22 06:44:12;;;;;;;5.13;1.55;;;6.10;99.90;;;;;;4882532;29;20055;-76
2022/01/22 06:46:38;;;;;;;5.20;1.30;;;6.10;99.90;;;;;;4882584;29;20552;-76
2022/01/22 06:49:03;;;;;;;;;;;6.10;99.90;;;;;;4882934;29;20157;-76
2022/01/22 06:51:29;;;;;;;4.68;1.20;;;6.10;99.90;;;;;;4882444;29;19927;-76
2022/01/22 06:53:55;;;;;;;;;;;6.10;99.90;;;;;;4880994;29;20047;-76
2022/01/22 06:56:21;;;;;;;4.78;1.30;;;6.10;99.90;;;;;;4882788;29;20279;-76
2022/01/22 06:58:48;;;;;;;8.15;1.80;;;6.20;99.90;;;;;;4882410;29;20055;-76
2022/01/22 07:01:14;;;;;;;10.65;2.08;;;6.20;99.90;;;;;;4881567;29;20055;-77
2022/01/22 07:03:40;;;;;;;8.73;1.77;;;6.20;99.90;;;;;;4880744;29;20139;-76
2022/01/22 07:06:05;;;;;;;;;;;6.20;99.90;;;;;;4882551;29;20549;-76
2022/01/22 07:08:31;;;;;;;5.25;1.83;;;6.20;99.90;;;;;;4880408;29;19928;-76
2022/01/22 07:10:57;;;;;;;;;;;5.90;99.90;;;;;;4882619;29;20472;-76
2022/01/22 07:13:22;;;;;;;5.05;1.50;;;6.20;99.90;;;;;;4882074;29;19970;-77
2022/01/22 07:15:48;;;;;;;;;;;6.20;99.90;;;;;;4882519;29;20489;-76
2022/01/22 07:18:14;;;;;;;7.45;2.65;;;6.20;99.90;;;;;;4881539;29;19955;-77
2022/01/22 07:20:41;;;;;;;;;;;6.20;99.90;;;;;;4869598;29;20067;-76
2022/01/22 07:25:51;;;;;;;10.05;3.25;;;6.20;99.90;;;;;;4870127;29;20053;-77
2022/01/22 07:28:17;;;;;;;;;;;6.20;99.90;;;;;;4881492;29;20048;-77
2022/01/22 07:30:46;;;;;;;4.07;1.70;;;6.20;99.90;;;;;;4881917;29;19930;-77
2022/01/22 07:33:12;;;;;;;6.32;1.92;;;6.20;99.90;;;;;;4880614;29;20056;-76
2022/01/22 07:35:38;;;;;;;4.90;1.52;;;6.30;99.90;;;;;;4881441;29;20055;-77
2022/01/22 07:38:04;;;;;;;;;;;6.20;99.90;;;;;;4882092;29;20040;-77
2022/01/22 07:40:30;;;;;;;4.30;1.60;;;6.30;99.90;;;;;;4879440;29;19927;-76
2022/01/22 07:42:59;;;;;;;;;;;6.30;99.90;;;;;;4879749;29;20049;-77
2022/01/22 07:45:25;;;;;;;6.75;1.90;;;6.30;99.90;;;;;;4881091;29;19924;-77
2022/01/22 07:47:50;;;;;;;;;;;6.20;99.90;;;;;;4881946;29;20044;-77
2022/01/22 07:50:16;;;;;;;7.30;1.50;;;6.20;99.90;;;;;;4880336;29;20296;-77
2022/01/22 07:52:41;;;;;;;;;;;6.20;99.90;;;;;;4880119;29;20044;-76
2022/01/22 07:55:07;;;;;;;4.05;1.33;;;6.20;99.90;;;;;;4880712;29;19946;-77
2022/01/22 07:57:33;;;;;;;;;;;6.20;99.90;;;;;;4881526;29;20049;-77
2022/01/22 08:00:12;;;;;;;7.35;1.30;;;6.20;99.90;;;;;;4881056;29;20022;-77
2022/01/22 08:02:38;;;;;;;4.85;1.35;;;6.20;99.90;;;;;;4881401;29;20049;-76
2022/01/22 08:05:06;;;;;;;;;;;6.30;99.90;;;;;;4880923;29;20056;-77
2022/01/22 08:07:31;;;;;;;3.80;1.25;;;6.30;99.90;;;;;;4878596;29;19939;-76
2022/01/22 08:10:00;;;;;;;;;;;6.30;99.90;;;;;;4880167;29;20053;-77
2022/01/22 08:12:26;;;;;;;8.60;2.00;;;6.30;99.90;;;;;;4880209;29;19928;-76
2022/01/22 08:14:51;;;;;;;;;;;6.30;99.90;;;;;;4881383;29;20519;-77
2022/01/22 08:17:17;;;;;;;10.48;5.95;;;6.30;99.90;;;;;;4878280;29;19931;-77
2022/01/22 08:19:42;;;;;;;;;;;6.30;99.90;;;;;;4880903;29;20060;-76
2022/01/22 08:22:08;;;;;;;10.73;5.65;;;6.40;99.90;;;;;;4880401;29;20332;-75
2022/01/22 08:24:35;;;;;;;9.88;5.10;;;6.40;99.90;;;;;;4880660;29;20418;-75
2022/01/22 08:29:44;;;;;;;5.22;3.05;;;6.50;99.90;;;;;;4880091;29;19923;-76
2022/01/22 08:37:26;;;;;;;8.95;2.38;;;6.50;99.90;;;;;;4878496;29;20045;-77
2022/01/22 08:39:52;;;;;;;;;;;6.50;99.90;;;;;;4880653;29;20188;-76
2022/01/22 08:42:19;;;;;;;11.27;6.90;;;6.50;99.90;;;;;;4971259;23;20376;-76
2022/01/22 08:44:46;;;;;;;9.25;4.07;;;6.50;99.90;;;;;;4880644;29;20048;-77
2022/01/22 08:47:12;;;;;;;7.18;2.95;;;6.50;99.90;;;;;;4879549;29;20059;-77
2022/01/22 08:49:38;;;;;;;;;;;6.60;99.90;;;;;;4881738;29;20104;-77
2022/01/22 08:52:11;;;;;;;7.45;2.63;;;6.60;99.90;;;;;;4877278;29;20368;-76
2022/01/22 08:54:38;;;;;;;12.27;2.78;;;7.30;99.90;;;;;;4879637;29;20489;-77
2022/01/22 08:57:04;;;;;;;7.13;2.33;;;6.60;99.90;;;;;;4879891;29;20045;-77
2022/01/22 09:04:31;;;;;;;3.80;1.80;;;6.60;99.90;;;;;;5651777;23;20062;-82
2022/01/22 09:12:09;;;;;;;5.85;1.90;;;6.70;99.90;;;;;;4859309;24;20054;-79
2022/01/22 09:14:35;;;;;;;6.40;2.20;;;6.80;99.90;;;;;;5157670;24;20054;-75
2022/01/22 09:17:02;;;;;;;5.03;2.10;;;6.80;99.90;;;;;;4843350;29;20136;-75
2022/01/22 09:19:33;;;;;;;8.10;2.85;;;6.80;99.90;;;;;;4846340;29;20037;-75
2022/01/22 09:22:02;;;;;;;6.63;2.35;;;6.80;99.90;;;;;;4842695;29;20088;-76
2022/01/22 09:26:24;;;;;;;11.02;2.88;;;8.20;99.90;;;;;;5113666;27;1948689;-79
2022/01/22 09:28:50;;;;;;;;;;;6.90;99.90;;;;;;5153106;27;20468;-78
2022/01/22 09:31:16;;;;;;;6.38;2.60;;;6.90;99.90;;;;;;5153436;27;20262;-87
2022/01/22 09:33:43;;;;;;;;;;;6.90;99.90;;;;;;5147454;27;20042;-81
2022/01/22 09:36:08;;;;;;;11.75;3.03;;;6.90;99.90;;;;;;5138360;27;19919;-76
2022/01/22 09:38:34;;;;;;;;;;;6.90;99.90;;;;;;5133469;27;20507;-75
2022/01/22 09:41:00;;;;;;;10.98;2.22;;;6.90;99.90;;;;;;5153201;27;19919;-76
2022/01/22 09:43:26;;;;;;;8.18;2.97;;;7.00;99.90;;;;;;5152195;27;20178;-80
2022/01/22 09:45:51;;;;;;;;;;;7.00;99.90;;;;;;5153854;27;20134;-77
2022/01/22 09:48:20;;;;;;;6.55;2.40;;;7.00;99.90;;;;;;5152955;27;19926;-75
2022/01/22 09:50:45;;;;;;;;;;;7.10;99.90;;;;;;5150533;27;20050;-75
2022/01/22 09:53:11;;;;;;;7.80;1.80;;;7.10;99.90;;;;;;5152619;27;19919;-76
2022/01/22 09:55:36;;;;;;;;;;;7.10;99.90;;;;;;5165876;27;20050;-75
2022/01/22 09:58:03;;;;;;;7.10;1.63;;;7.10;99.90;;;;;;5131278;27;19926;-80
2022/01/22 10:00:29;;;;;;;10.82;2.65;;;7.10;99.90;;;;;;5134094;27;20079;-78
2022/01/22 10:02:55;;;;;;;;;;;7.20;99.90;;;;;;5138857;27;20129;-77
2022/01/22 10:05:36;;;;;;;4.87;1.80;;;7.20;99.90;;;;;;5129198;22;19920;-78
2022/01/22 10:08:28;;;;;;;7.15;2.00;;;7.20;99.90;;;;;;5057187;28;20404;-79
2022/01/22 10:10:55;;;;;;;6.90;2.00;;;7.20;99.90;;;;;;5066248;28;20053;-80
2022/01/22 10:13:45;;;;;;;11.65;2.10;;;7.20;99.90;;;;;;5065617;28;20094;-79
2022/01/22 10:16:18;;;;;;;8.88;2.65;;;7.20;99.90;;;;;;5066041;28;20591;-77
2022/01/22 10:19:13;;;;;;;6.47;2.28;;;7.30;99.90;;;;;;5065676;28;20055;-74
2022/01/22 10:21:48;;;;;;;9.25;2.20;;;7.30;99.90;;;;;;5055534;28;20171;-80
2022/01/22 10:24:30;;;;;;;8.75;2.40;;;7.30;99.90;;;;;;5065494;28;20049;-77
2022/01/22 10:27:39;;;;;;;10.00;2.92;;;7.30;99.90;;;;;;5061314;28;20053;-78
2022/01/22 10:30:17;;;;;;;8.45;2.75;;;7.30;99.90;;;;;;5061618;28;20047;-77
2022/01/22 10:35:22;;;;;;;10.13;1.85;;;7.30;99.90;;;;;;5065628;28;20136;-76
2022/01/22 10:37:57;;;;;;;6.03;1.80;;;7.30;99.90;;;;;;5048990;28;20040;-77
2022/01/22 10:40:33;;;;;;;11.23;2.38;;;7.30;99.90;;;;;;5044162;28;20136;-76
2022/01/22 10:43:31;;;;;;;7.03;1.85;;;7.30;99.90;;;;;;5050233;28;20044;-76
2022/01/22 10:46:19;;;;;;;8.55;2.10;;;7.30;99.90;;;;;;5047328;28;20056;-78
2022/01/22 10:49:04;;;;;;;4.70;1.55;;;7.30;99.90;;;;;;5067730;28;20092;-80
2022/01/22 10:51:32;;;;;;;7.15;1.60;;;7.40;99.90;;;;;;5052495;28;20045;-85
2022/01/22 10:54:00;;;;;;;5.68;1.60;;;7.50;99.90;;;;;;5052122;28;20041;-79
2022/01/22 10:56:33;;;;;;;8.30;1.65;;;7.40;99.90;;;;;;5051391;28;20493;-80
2022/01/22 10:59:02;;;;;;;7.22;1.77;;;6.80;99.90;;;;;;5052284;28;20114;-78
2022/01/22 11:01:42;;;;;;;7.72;2.00;;;7.40;99.90;;;;;;5051407;28;20041;-80
2022/01/22 11:04:10;;;;;;;4.55;1.65;;;7.40;99.90;;;;;;5052175;28;20049;-77
2022/01/22 11:06:48;;;;;;;4.22;1.42;;;7.40;99.90;;;;;;5051051;28;20064;-77
2022/01/22 11:09:14;;;;;;;3.03;1.38;;;7.40;99.90;;;;;;5048585;28;20665;-77
2022/01/22 11:11:43;;;;;;;;;;;7.40;99.90;;;;;;5051992;28;20083;-77
2022/01/22 11:14:10;;;;;;;4.55;1.30;;;7.40;99.90;;;;;;5052686;28;19943;-77
2022/01/22 11:16:42;;;;;;;6.00;1.30;;;7.40;99.90;;;;;;5067851;28;20151;-77
2022/01/22 11:19:16;;;;;;;3.78;1.63;;;7.40;99.90;;;;;;5051327;28;20154;-76
2022/01/22 11:21:46;;;;;;;6.60;1.80;;;7.40;99.90;;;;;;5050957;28;20033;-77
2022/01/22 11:24:23;;;;;;;6.45;2.08;;;7.40;99.90;;;;;;5053897;28;20052;-77
2022/01/22 11:26:58;;;;;;;6.70;2.95;;;7.40;99.90;;;;;;5052899;28;20090;-76
2022/01/22 11:29:35;;;;;;;6.22;3.42;;;7.40;99.90;;;;;;5053001;28;20045;-77
2022/01/22 11:32:06;;;;;;;8.32;4.63;;;7.50;99.90;;;;;;5054288;28;20095;-76
2022/01/22 11:34:34;;;;;;;11.02;4.40;;;7.50;99.90;;;;;;5053723;28;20056;-76
2022/01/22 11:37:20;;;;;;;13.73;5.97;;;7.50;99.90;;;;;;5053990;28;20044;-76
2022/01/22 11:39:47;;;;;;;12.77;5.30;;;7.50;99.90;;;;;;5053153;28;20072;-76
2022/01/22 11:42:14;;;;;;;12.85;5.75;;;7.50;99.90;;;;;;5051819;28;20310;-77
2022/01/22 11:44:51;;;;;;;14.77;5.75;;;7.50;99.90;;;;;;5052047;28;20041;-76
2022/01/22 11:47:24;;;;;;;17.70;7.53;;;7.50;99.90;;;;;;5053341;28;20048;-76
2022/01/22 11:50:07;;;;;;;8.20;3.92;;;7.50;99.90;;;;;;5052915;28;20033;-76
2022/01/22 11:52:41;;;;;;;10.52;4.88;;;7.50;99.90;;;;;;5051972;28;20490;-77
2022/01/22 11:55:12;;;;;;;11.48;5.95;;;7.50;99.90;;;;;;5053176;28;20056;-76
2022/01/22 11:57:44;;;;;;;15.75;8.80;;;7.50;99.90;;;;;;5052957;28;20115;-76
2022/01/22 12:00:15;;;;;;;13.40;6.25;;;7.60;99.90;;;;;;5052337;28;20065;-76
2022/01/22 12:02:40;;;;;;;13.20;7.60;;;7.60;99.90;;;;;;5051593;28;20033;-76
2022/01/22 12:05:07;;;;;;;;;;;7.50;99.90;;;;;;5051803;28;20070;-75
2022/01/22 12:07:35;;;;;;;20.75;9.02;;;7.50;99.90;;;;;;5053260;28;20368;-76
2022/01/22 12:14:25;;;;;;;22.65;9.63;;;7.50;99.90;;;;;;5053183;28;20045;-76
2022/01/22 12:16:14;;;;;;;19.23;10.48;;;7.50;99.90;;;;;;5051569;28;20057;-76
2022/01/22 12:18:58;;;;;;;20.52;8.13;;;7.50;99.90;;;;;;5051432;28;20048;-76
2022/01/22 12:21:32;;;;;;;32.05;12.90;;;7.50;99.90;;;;;;5051712;28;20048;-76
2022/01/22 12:23:59;;;;;;;17.65;6.22;;;7.50;99.90;;;;;;5051672;28;20102;-76
2022/01/22 12:26:41;;;;;;;17.95;7.10;;;7.50;99.90;;;;;;5051326;28;20045;-77
2022/01/22 12:29:27;;;;;;;15.95;6.07;;;7.50;99.90;;;;;;5051319;28;20162;-77
2022/01/22 12:32:08;;;;;;;8.03;2.97;;;7.50;99.90;;;;;;5051253;28;20124;-76
2022/01/22 12:34:59;;;;;;;8.20;3.50;;;7.60;99.90;;;;;;5052743;28;20041;-76
2022/01/22 12:37:26;;;;;;;8.68;4.80;;;7.50;99.90;;;;;;5052148;28;20167;-76
2022/01/22 12:39:55;;;;;;;7.40;2.83;;;7.50;99.90;;;;;;5051301;28;20044;-77
2022/01/22 12:42:32;;;;;;;5.60;2.53;;;7.50;99.90;;;;;;5051216;28;20048;-85
2022/01/22 12:45:06;;;;;;;6.82;2.35;;;7.50;99.90;;;;;;5050658;28;20055;-77
2022/01/22 12:47:33;;;;;;;7.20;3.22;;;7.50;99.90;;;;;;5051204;28;20508;-91
2022/01/22 12:50:06;;;;;;;9.40;3.40;;;7.50;99.90;;;;;;5051697;28;20118;-84
2022/01/22 12:52:33;;;;;;;6.82;1.85;;;7.50;99.90;;;;;;5051254;28;20499;-82
2022/01/22 12:55:00;;;;;;;7.53;2.63;;;7.50;99.90;;;;;;5053764;28;20546;-86
2022/01/22 12:57:27;;;;;;;6.00;2.03;;;7.40;99.90;;;;;;5052461;28;20484;-84
2022/01/22 13:00:19;;;;;;;6.72;2.63;;;7.40;99.90;;;;;;5052875;28;20094;-81
2022/01/22 13:02:47;;;;;;;6.20;2.25;;;7.40;99.90;;;;;;5051291;28;20373;-80
2022/01/22 13:05:21;;;;;;;5.45;2.20;;;7.30;99.90;;;;;;5050860;28;20048;-85
2022/01/22 13:07:54;;;;;;;7.53;2.10;;;7.30;99.90;;;;;;5051871;28;20488;-81
2022/01/22 13:10:26;;;;;;;7.25;2.25;;;7.30;99.90;;;;;;5052669;28;20040;-81
2022/01/22 13:12:55;;;;;;;5.78;2.70;;;7.70;99.90;;;;;;5050721;28;20037;-76
2022/01/22 13:15:21;;;;;;;5.65;2.15;;;7.30;99.90;;;;;;5045371;28;20043;-81
2022/01/22 13:17:52;;;;;;;;;;;7.40;99.90;;;;;;5046552;28;20405;-87
2022/01/22 13:20:26;;;;;;;5.40;1.60;;;7.40;99.90;;;;;;5049392;28;19929;-85
2022/01/22 13:22:53;;;;;;;4.47;1.70;;;7.40;99.90;;;;;;5038320;28;20049;-80
2022/01/22 13:25:19;;;;;;;10.73;4.07;;;7.40;99.90;;;;;;5046915;28;20106;-76
2022/01/22 13:28:04;;;;;;;8.85;3.20;;;7.40;99.90;;;;;;5042935;28;20056;-76
2022/01/22 13:30:36;;;;;;;5.45;2.40;;;7.40;99.90;;;;;;5041307;28;20044;-77
2022/01/22 13:33:15;;;;;;;7.38;2.30;;;7.40;99.90;;;;;;5048742;28;20084;-75
2022/01/22 13:36:11;;;;;;;5.35;1.70;;;7.40;99.90;;;;;;5048341;28;20489;-76
2022/01/22 13:49:32;;;;;;;;;;;7.30;99.90;;;;;;5049258;28;20091;-78
2022/01/22 13:52:02;;;;;;;7.43;2.60;;;7.30;99.90;;;;;;5049559;28;19931;-74
2022/01/22 13:54:35;;;;;;;8.20;4.68;;;7.30;99.90;;;;;;5048663;28;20507;-74
2022/01/22 13:57:10;;;;;;;7.93;4.00;;;7.30;99.90;;;;;;5036321;28;20045;-75
2022/01/22 13:59:44;;;;;;;7.78;3.28;;;7.30;99.90;;;;;;5040260;28;20085;-73
2022/01/22 14:02:36;;;;;;;7.97;4.55;;;7.30;99.90;;;;;;5044598;28;20131;-76
2022/01/22 14:05:09;;;;;;;9.63;4.60;;;7.20;99.90;;;;;;5049396;28;20120;-74
2022/01/22 14:07:44;;;;;;;6.72;3.90;;;7.20;99.90;;;;;;5051137;28;20076;-78
2022/01/22 14:10:19;;;;;;;8.30;3.95;;;7.30;99.90;;;;;;5048177;28;20045;-75
2022/01/22 14:12:49;;;;;;;7.15;3.05;;;7.30;99.90;;;;;;5051325;28;20123;-82
2022/01/22 14:15:24;;;;;;;7.50;2.90;;;7.90;99.90;;;;;;5053226;28;20083;-76
2022/01/22 14:18:15;;;;;;;5.75;2.10;;;7.20;99.90;;;;;;5052105;28;20136;-80
2022/01/22 14:20:52;;;;;;;6.22;2.25;;;7.20;99.90;;;;;;5053500;28;20402;-76
2022/01/22 14:23:31;;;;;;;6.22;2.75;;;7.10;99.90;;;;;;5054479;28;20075;-77
2022/01/22 14:26:27;;;;;;;6.22;2.25;;;7.10;99.90;;;;;;5054082;28;20044;-79
2022/01/22 14:29:04;;;;;;;5.57;2.72;;;7.00;99.90;;;;;;5047402;28;20053;-77
2022/01/22 14:31:32;;;;;;;4.90;2.38;;;7.00;99.90;;;;;;5052679;28;20080;-78
2022/01/22 14:34:07;;;;;;;6.25;2.20;;;7.00;99.90;;;;;;5053626;28;20716;-77
2022/01/22 14:36:38;;;;;;;7.65;3.28;;;7.00;99.90;;;;;;5049919;28;20073;-82
2022/01/22 14:39:27;;;;;;;8.48;3.38;;;7.00;99.90;;;;;;5050486;28;20361;-83
2022/01/22 14:44:48;;;;;;;13.40;6.22;;;7.00;99.90;;;;;;5052348;28;20052;-84
2022/01/22 14:47:22;;;;;;;23.23;11.60;;;7.00;99.90;;;;;;5053809;28;20120;-89
2022/01/22 14:49:51;;;;;;;26.63;10.63;;;7.00;99.90;;;;;;5057768;28;20183;-90
2022/01/22 14:52:25;;;;;;;19.10;6.95;;;7.00;99.90;;;;;;5052604;28;20516;-83
2022/01/22 14:54:52;;;;;;;15.13;5.72;;;7.10;99.90;;;;;;5057569;28;20044;-81
2022/01/22 14:57:30;;;;;;;8.73;3.63;;;7.10;99.90;;;;;;5066519;28;20063;-87
2022/01/22 14:59:56;;;;;;;6.85;2.53;;;7.00;99.90;;;;;;5051549;28;20060;-81
2022/01/22 15:02:24;;;;;;;;;;;7.00;99.90;;;;;;5052109;28;20041;-81
2022/01/22 15:04:50;;;;;;;7.63;2.20;;;6.90;99.90;;;;;;5051458;28;19928;-83
2022/01/22 15:07:16;;;;;;;;;;;6.90;99.90;;;;;;5052959;28;20416;-83
2022/01/22 15:09:45;;;;;;;4.70;1.80;;;6.90;99.90;;;;;;5051200;28;19947;-74
2022/01/22 15:12:11;;;;;;;4.13;1.77;;;6.80;99.90;;;;;;5064543;28;20614;-78
2022/01/22 15:14:38;;;;;;;;;;;6.80;99.90;;;;;;5051898;28;20048;-79
2022/01/22 15:19:35;;;;;;;6.60;1.98;;;6.70;99.90;;;;;;5051936;28;20045;-80
2022/01/22 15:22:02;;;;;;;6.10;2.10;;;6.70;99.90;;;;;;5053612;28;20036;-78
2022/01/22 15:24:27;;;;;;;6.75;2.28;;;6.70;99.90;;;;;;5051487;28;20128;-83
2022/01/22 15:26:56;;;;;;;;;;;6.70;99.90;;;;;;5051583;28;20140;-87
2022/01/22 15:29:27;;;;;;;7.32;1.70;;;6.70;99.90;;;;;;5067116;28;19928;-85
2022/01/22 15:37:04;;;;;;;17.45;9.02;;;6.60;99.90;;;;;;5050524;28;20045;-80
2022/01/22 15:39:30;;;;;;;5.78;2.60;;;6.50;99.90;;;;;;5051945;28;20151;-83
2022/01/22 15:42:03;;;;;;;9.63;2.83;;;7.40;99.90;;;;;;5052446;28;20048;-84
2022/01/22 15:44:36;;;;;;;7.40;2.22;;;6.60;99.90;;;;;;5047632;28;20037;-80
2022/01/22 15:47:02;;;;;;;5.22;2.65;;;6.60;99.90;;;;;;5062823;22;20083;-77
2022/01/22 15:49:31;;;;;;;;;;;6.50;99.90;;;;;;5035154;28;20044;-81